Time;durP1;ratioP1;P1;durP2;ratioP2;P2;SDS_P1;SDS_P2;PMS_P1;PMS_P2;Temp;Humidity;BMP_temperature;BMP_pressure;BME280_temperature;BME280_humidity;BME280_pressure;Samples;Min_cycle;Max_cycle;Signal;HPM_P1;HPM_P2
2021/10/23 00:00:58;;;;;;;20.02;3.72;;;5.20;99.90;;;;;;5079041;28;20028;-65
2021/10/23 00:03:23;;;;;;;;;;;5.10;99.90;;;;;;5079584;28;20464;-65
2021/10/23 00:05:49;;;;;;;18.83;4.20;;;5.10;99.90;;;;;;5081867;28;19916;-65
2021/10/23 00:08:15;;;;;;;;;;;5.20;99.90;;;;;;5080343;28;20731;-63
2021/10/23 00:10:41;;;;;;;83.15;46.60;;;5.20;99.90;;;;;;5082510;28;19905;-63
2021/10/23 00:13:07;;;;;;;23.05;6.70;;;5.30;99.90;;;;;;5082995;28;20143;-63
2021/10/23 00:15:33;;;;;;;34.42;12.30;;;5.20;99.90;;;;;;5083264;28;20029;-63
2021/10/23 00:17:59;;;;;;;14.57;5.18;;;5.20;99.90;;;;;;5071201;28;20040;-65
2021/10/23 00:20:24;;;;;;;17.80;4.63;;;5.30;99.90;;;;;;5068745;28;20670;-65
2021/10/23 00:22:50;;;;;;;18.23;4.10;;;5.30;99.90;;;;;;5069452;28;20093;-65
2021/10/23 00:25:16;;;;;;;;;;;5.30;99.90;;;;;;5070224;28;20119;-65
2021/10/23 00:27:41;;;;;;;21.50;4.30;;;5.30;99.90;;;;;;5066282;28;19908;-65
2021/10/23 00:30:08;;;;;;;20.48;3.75;;;5.20;99.90;;;;;;5065014;28;20105;-65
2021/10/23 00:32:34;;;;;;;11.85;3.38;;;5.30;99.90;;;;;;5065407;28;20124;-65
2021/10/23 00:34:59;;;;;;;15.20;2.72;;;5.30;99.90;;;;;;5067485;28;20078;-65
2021/10/23 00:37:25;;;;;;;13.18;3.25;;;5.30;99.90;;;;;;5065021;28;20028;-65
2021/10/23 00:39:51;;;;;;;14.85;3.42;;;5.30;99.90;;;;;;5067718;28;20384;-66
2021/10/23 00:42:17;;;;;;;17.95;3.22;;;5.30;99.90;;;;;;5049310;28;20033;-66
2021/10/23 00:44:43;;;;;;;18.50;3.72;;;5.30;99.90;;;;;;5045739;28;20544;-65
2021/10/23 00:47:16;;;;;;;18.25;3.78;;;5.40;99.90;;;;;;5045738;28;20373;-65
2021/10/23 00:49:42;;;;;;;18.55;3.53;;;5.40;99.90;;;;;;5045687;28;20101;-65
2021/10/23 00:52:10;;;;;;;13.52;3.50;;;5.40;99.90;;;;;;5048046;28;20159;-65
2021/10/23 00:54:36;;;;;;;17.00;3.45;;;5.40;99.90;;;;;;5049096;28;20060;-65
2021/10/23 00:57:03;;;;;;;24.73;4.15;;;5.40;99.90;;;;;;5048233;28;20037;-66
2021/10/23 00:59:29;;;;;;;24.00;4.82;;;5.50;99.90;;;;;;5063983;28;20174;-66
2021/10/23 01:01:55;;;;;;;24.67;4.93;;;5.50;99.90;;;;;;5066749;28;20115;-65
2021/10/23 01:04:21;;;;;;;;;;;5.40;99.90;;;;;;5069413;28;20044;-66
2021/10/23 01:06:48;;;;;;;18.07;4.70;;;5.40;99.90;;;;;;5067864;28;19912;-65
2021/10/23 01:09:14;;;;;;;18.65;4.07;;;5.50;99.90;;;;;;5064755;28;20033;-65
2021/10/23 01:11:41;;;;;;;15.90;4.72;;;5.40;99.90;;;;;;5054196;28;20112;-65
2021/10/23 01:14:19;;;;;;;17.08;4.57;;;5.50;99.90;;;;;;5047429;28;20401;-66
2021/10/23 01:16:46;;;;;;;18.83;4.40;;;5.50;99.90;;;;;;5046824;28;20037;-66
2021/10/23 01:19:12;;;;;;;13.68;3.58;;;5.50;99.90;;;;;;5044897;28;20044;-65
2021/10/23 01:21:38;;;;;;;16.05;4.65;;;5.50;99.90;;;;;;5044325;28;20033;-66
2021/10/23 01:24:05;;;;;;;16.23;4.25;;;5.50;99.90;;;;;;5045463;28;20496;-66
2021/10/23 01:26:31;;;;;;;19.13;4.22;;;5.50;99.90;;;;;;5044542;28;20538;-65
2021/10/23 01:28:57;;;;;;;16.13;4.10;;;5.50;99.90;;;;;;5060279;28;20528;-65
2021/10/23 01:31:22;;;;;;;19.85;4.85;;;5.50;99.90;;;;;;5067408;28;20032;-65
2021/10/23 01:33:48;;;;;;;;;;;5.50;99.90;;;;;;5068768;28;20031;-65
2021/10/23 01:36:16;;;;;;;25.80;5.22;;;5.50;99.90;;;;;;5066373;28;19912;-66
2021/10/23 01:38:43;;;;;;;20.98;4.30;;;5.50;99.90;;;;;;5066623;28;20040;-65
2021/10/23 01:41:08;;;;;;;23.40;5.63;;;5.60;99.90;;;;;;5067425;28;20692;-66
2021/10/23 01:43:34;;;;;;;16.90;4.53;;;5.50;99.90;;;;;;5066992;28;20028;-65
2021/10/23 01:46:00;;;;;;;20.20;5.53;;;5.50;99.90;;;;;;5067313;28;20032;-66
2021/10/23 01:48:26;;;;;;;18.45;4.53;;;5.50;99.90;;;;;;5067843;28;20032;-65
2021/10/23 01:50:52;;;;;;;19.85;5.57;;;5.50;99.90;;;;;;5067591;28;20032;-65
2021/10/23 01:53:18;;;;;;;22.00;5.03;;;5.60;99.90;;;;;;5067945;28;20028;-63
2021/10/23 01:55:45;;;;;;;21.67;4.95;;;5.60;99.90;;;;;;5068420;28;20070;-63
2021/10/23 01:58:11;;;;;;;16.48;5.57;;;5.60;99.90;;;;;;5064808;28;20032;-62
2021/10/23 02:00:37;;;;;;;20.83;5.28;;;5.60;99.90;;;;;;5063757;28;20040;-63
2021/10/23 02:03:02;;;;;;;21.58;6.03;;;5.60;99.90;;;;;;5064965;28;20668;-63
2021/10/23 02:05:28;;;;;;;;;;;5.50;99.90;;;;;;5067241;28;20067;-62
2021/10/23 02:07:54;;;;;;;21.05;4.75;;;5.50;99.90;;;;;;5065765;28;19908;-62
2021/10/23 02:10:19;;;;;;;16.33;4.85;;;5.50;99.90;;;;;;5063018;28;20056;-63
2021/10/23 02:12:45;;;;;;;32.30;5.53;;;5.40;99.90;;;;;;5066192;28;20702;-63
2021/10/23 02:15:10;;;;;;;27.52;5.40;;;5.40;99.90;;;;;;5067774;28;20440;-64
2021/10/23 02:17:36;;;;;;;26.05;6.32;;;5.40;99.90;;;;;;5064323;28;20473;-63
2021/10/23 02:20:09;;;;;;;22.05;5.55;;;5.40;99.90;;;;;;5066526;28;20036;-63
2021/10/23 02:22:36;;;;;;;18.63;5.07;;;5.40;99.90;;;;;;5067331;28;20089;-62
2021/10/23 02:25:02;;;;;;;22.38;5.88;;;5.40;99.90;;;;;;5065884;28;20043;-62
2021/10/23 02:27:27;;;;;;;23.38;7.32;;;5.30;99.90;;;;;;5063411;28;20416;-63
2021/10/23 02:29:53;;;;;;;;;;;5.30;99.90;;;;;;5066209;28;20056;-62
2021/10/23 02:32:19;;;;;;;22.00;5.20;;;5.30;99.90;;;;;;5061023;28;19916;-62
2021/10/23 02:34:44;;;;;;;;;;;5.20;99.90;;;;;;5068656;28;20029;-62
2021/10/23 02:37:10;;;;;;;20.25;4.85;;;5.30;99.90;;;;;;5066331;28;19908;-62
2021/10/23 02:39:35;;;;;;;22.85;4.57;;;5.30;99.90;;;;;;5063441;28;20036;-63
2021/10/23 02:42:01;;;;;;;22.05;4.70;;;5.20;99.90;;;;;;5063902;28;20033;-63
2021/10/23 02:44:27;;;;;;;22.85;6.05;;;5.20;99.90;;;;;;5063423;28;20036;-62
2021/10/23 02:46:52;;;;;;;20.85;5.13;;;5.20;99.90;;;;;;5051248;28;20041;-63
2021/10/23 02:49:18;;;;;;;;;;;5.20;99.90;;;;;;5045309;28;20511;-63
2021/10/23 02:51:46;;;;;;;23.00;5.82;;;5.20;99.90;;;;;;5046257;28;19917;-62
2021/10/23 02:54:12;;;;;;;21.65;4.82;;;5.20;99.90;;;;;;5046269;28;20126;-62
2021/10/23 02:56:38;;;;;;;21.73;4.80;;;5.20;99.90;;;;;;5045054;28;20061;-62
2021/10/23 02:59:04;;;;;;;26.05;8.02;;;5.20;99.90;;;;;;5060493;28;20107;-62
2021/10/23 03:01:30;;;;;;;26.75;4.97;;;5.20;99.90;;;;;;5066270;28;20435;-62
2021/10/23 03:03:56;;;;;;;22.88;5.00;;;5.20;99.90;;;;;;5066649;28;20033;-62
2021/10/23 03:06:21;;;;;;;23.85;5.32;;;5.10;99.90;;;;;;5064786;28;20602;-63
2021/10/23 03:08:47;;;;;;;17.33;4.78;;;5.10;99.90;;;;;;5063105;28;20025;-62
2021/10/23 03:11:12;;;;;;;;;;;5.00;99.90;;;;;;5062304;28;20036;-63
2021/10/23 03:13:39;;;;;;;20.35;4.40;;;5.00;99.90;;;;;;5063717;28;20403;-63
2021/10/23 03:16:05;;;;;;;26.48;6.22;;;5.00;99.90;;;;;;5065239;28;20123;-62
2021/10/23 03:18:30;;;;;;;22.70;5.50;;;4.90;99.90;;;;;;5063906;28;20104;-63
2021/10/23 03:20:57;;;;;;;17.15;4.82;;;5.00;99.90;;;;;;5062654;28;20033;-62
2021/10/23 03:23:23;;;;;;;21.85;5.05;;;5.00;99.90;;;;;;5063124;28;20079;-62
2021/10/23 03:25:49;;;;;;;14.77;3.97;;;4.90;99.90;;;;;;5063976;28;20476;-63
2021/10/23 03:28:15;;;;;;;;;;;4.90;99.90;;;;;;5064028;28;20033;-64
2021/10/23 03:30:40;;;;;;;15.57;4.85;;;5.00;99.90;;;;;;5061819;28;19908;-63
2021/10/23 03:33:07;;;;;;;13.20;4.22;;;4.90;99.90;;;;;;5062293;28;20151;-64
2021/10/23 03:35:32;;;;;;;20.80;5.80;;;4.90;99.90;;;;;;5066117;28;20039;-65
2021/10/23 03:37:58;;;;;;;16.70;5.22;;;4.90;99.90;;;;;;5063465;28;20020;-63
2021/10/23 03:40:24;;;;;;;18.80;5.28;;;4.90;99.90;;;;;;5062614;28;20082;-64
2021/10/23 03:42:49;;;;;;;28.85;5.20;;;4.90;99.90;;;;;;5067059;28;20031;-64
2021/10/23 03:45:15;;;;;;;;;;;4.90;99.90;;;;;;5067642;28;20032;-65
2021/10/23 03:47:41;;;;;;;19.48;4.28;;;4.90;99.90;;;;;;5066081;28;19913;-64
2021/10/23 03:50:07;;;;;;;21.83;4.88;;;4.80;99.90;;;;;;5066372;28;20480;-64
2021/10/23 03:52:33;;;;;;;15.23;4.22;;;4.80;99.90;;;;;;5067084;28;20041;-64
2021/10/23 03:54:59;;;;;;;17.70;4.85;;;4.80;99.90;;;;;;5069432;28;20037;-64
2021/10/23 03:57:25;;;;;;;28.92;5.22;;;4.80;99.90;;;;;;5069126;28;20037;-64
2021/10/23 03:59:50;;;;;;;43.83;16.55;;;4.70;99.90;;;;;;5069831;28;20047;-64
2021/10/23 04:02:16;;;;;;;350.75;164.73;;;4.80;99.90;;;;;;5069621;28;20768;-64
2021/10/23 04:04:41;;;;;;;;;;;4.80;99.90;;;;;;5070474;28;20089;-64
2021/10/23 04:07:07;;;;;;;38.03;14.98;;;4.80;99.90;;;;;;5067797;28;20017;-64
2021/10/23 04:09:33;;;;;;;25.77;8.88;;;4.80;99.90;;;;;;5066053;28;20025;-64
2021/10/23 04:11:59;;;;;;;19.70;4.93;;;4.80;99.90;;;;;;5068504;28;20040;-64
2021/10/23 04:14:24;;;;;;;24.48;5.47;;;4.70;99.90;;;;;;5066889;28;20032;-65
2021/10/23 04:16:50;;;;;;;25.48;4.97;;;4.70;99.90;;;;;;5068351;28;20527;-64
2021/10/23 04:19:16;;;;;;;17.05;4.95;;;4.70;99.90;;;;;;5069813;28;20067;-64
2021/10/23 04:21:42;;;;;;;18.50;4.88;;;4.70;99.90;;;;;;5058311;28;20564;-63
2021/10/23 04:24:09;;;;;;;15.45;4.40;;;4.70;99.90;;;;;;5050177;28;20037;-65
2021/10/23 04:26:38;;;;;;;17.80;4.03;;;4.80;99.90;;;;;;5048950;28;20045;-63
2021/10/23 04:29:04;;;;;;;19.02;5.53;;;4.70;99.90;;;;;;5048204;28;20044;-64
2021/10/23 04:31:30;;;;;;;20.20;5.15;;;4.60;99.90;;;;;;5047893;28;20037;-64
2021/10/23 04:33:56;;;;;;;16.58;4.10;;;4.70;99.90;;;;;;5047456;28;20148;-63
2021/10/23 04:36:22;;;;;;;16.92;4.53;;;4.70;99.90;;;;;;5048119;28;20390;-64
2021/10/23 04:38:48;;;;;;;17.33;3.60;;;4.70;99.90;;;;;;5048149;28;20036;-64
2021/10/23 04:41:13;;;;;;;18.98;4.05;;;4.80;99.90;;;;;;5048078;28;20115;-64
2021/10/23 04:43:39;;;;;;;;;;;4.80;99.90;;;;;;5047835;28;20076;-64
2021/10/23 04:46:05;;;;;;;22.23;4.95;;;4.80;99.90;;;;;;5032333;28;19971;-63
2021/10/23 04:48:35;;;;;;;16.92;4.95;;;4.70;99.90;;;;;;5047286;28;20086;-63
2021/10/23 04:51:01;;;;;;;20.70;6.35;;;4.80;99.90;;;;;;5047461;28;20045;-64
2021/10/23 04:53:27;;;;;;;17.50;5.63;;;4.80;99.90;;;;;;5047246;28;20047;-63
2021/10/23 04:55:53;;;;;;;16.40;4.53;;;4.80;99.90;;;;;;5046399;28;20124;-65
2021/10/23 04:58:19;;;;;;;19.27;5.45;;;4.80;99.90;;;;;;5047927;28;20045;-63
2021/10/23 05:00:45;;;;;;;19.77;5.60;;;4.80;99.90;;;;;;5048516;28;20033;-62
2021/10/23 05:03:10;;;;;;;23.85;5.15;;;4.80;99.90;;;;;;5047435;28;20072;-63
2021/10/23 05:05:36;;;;;;;19.05;5.82;;;4.80;99.90;;;;;;5046764;28;20106;-64
2021/10/23 05:08:02;;;;;;;14.25;5.18;;;4.80;99.90;;;;;;5045461;28;20396;-63
2021/10/23 05:10:28;;;;;;;23.83;5.43;;;4.90;99.90;;;;;;5044870;28;20041;-63
2021/10/23 05:12:53;;;;;;;14.98;4.90;;;4.80;99.90;;;;;;5045424;28;20048;-64
2021/10/23 05:15:19;;;;;;;17.10;4.90;;;4.80;99.90;;;;;;5047284;28;20045;-64
2021/10/23 05:17:45;;;;;;;17.90;4.88;;;4.90;99.90;;;;;;5045549;28;20033;-65
2021/10/23 05:20:11;;;;;;;21.38;5.80;;;4.80;99.90;;;;;;5044219;28;20094;-64
2021/10/23 05:22:37;;;;;;;21.15;6.00;;;4.80;99.90;;;;;;5044151;28;20087;-64
2021/10/23 05:25:04;;;;;;;22.10;6.07;;;4.70;99.90;;;;;;5027546;28;20564;-64
2021/10/23 05:27:29;;;;;;;15.27;4.80;;;4.70;99.90;;;;;;5028837;28;20041;-64
2021/10/23 05:29:55;;;;;;;15.60;4.60;;;4.80;99.90;;;;;;5049184;28;20064;-64
2021/10/23 05:32:20;;;;;;;23.70;5.50;;;4.70;99.90;;;;;;5047397;28;20042;-64
2021/10/23 05:34:46;;;;;;;20.75;5.97;;;4.70;99.90;;;;;;5048612;28;20033;-63
2021/10/23 05:37:12;;;;;;;14.82;4.78;;;4.70;99.90;;;;;;5045692;28;20057;-63
2021/10/23 05:39:56;;;;;;;18.42;5.75;;;4.70;99.90;;;;;;5042593;28;20420;-69
2021/10/23 05:42:22;;;;;;;14.52;5.00;;;4.70;99.90;;;;;;5047152;28;20124;-64
2021/10/23 05:44:47;;;;;;;15.70;4.93;;;4.60;99.90;;;;;;5047077;28;20476;-65
2021/10/23 05:47:13;;;;;;;14.50;5.50;;;4.70;99.90;;;;;;5045481;28;20048;-65
2021/10/23 05:49:40;;;;;;;23.35;5.85;;;4.70;99.90;;;;;;5046950;28;20047;-65
2021/10/23 05:52:06;;;;;;;26.35;5.40;;;4.70;99.90;;;;;;5047722;28;20049;-64
2021/10/23 05:54:37;;;;;;;12.68;4.93;;;4.70;99.90;;;;;;5046165;28;20056;-66
2021/10/23 05:57:08;;;;;;;17.85;5.63;;;4.70;99.90;;;;;;5044927;28;20041;-67
2021/10/23 05:59:41;;;;;;;17.50;5.15;;;4.60;99.90;;;;;;5038837;28;20069;-65
2021/10/23 06:02:50;;;;;;;20.73;5.38;;;4.60;99.90;;;;;;5035040;28;20037;-65
2021/10/23 06:04:59;;;;;;;22.50;4.95;;;4.60;99.90;;;;;;5040243;28;20132;-65
2021/10/23 06:07:29;;;;;;;18.90;4.65;;;4.70;99.90;;;;;;5044246;28;20115;-65
2021/10/23 06:09:56;;;;;;;19.73;5.32;;;4.70;99.90;;;;;;5041515;28;20045;-65
2021/10/23 06:12:24;;;;;;;18.35;5.03;;;4.60;99.90;;;;;;5046100;28;20045;-65
2021/10/23 06:14:50;;;;;;;22.95;5.15;;;4.60;99.90;;;;;;5047117;28;20045;-65
2021/10/23 06:17:15;;;;;;;21.73;4.85;;;4.70;99.90;;;;;;5043201;28;20052;-65
2021/10/23 06:19:41;;;;;;;14.90;4.97;;;4.70;99.90;;;;;;5043260;28;20048;-65
2021/10/23 06:22:07;;;;;;;;;;;4.70;99.90;;;;;;5044305;28;20049;-66
2021/10/23 06:24:34;;;;;;;18.63;4.53;;;4.70;99.90;;;;;;5046164;28;19942;-65
2021/10/23 06:26:59;;;;;;;23.17;4.63;;;4.80;99.90;;;;;;5045523;28;20121;-65
2021/10/23 06:29:26;;;;;;;17.85;4.82;;;4.80;99.90;;;;;;5041837;28;20164;-65
2021/10/23 06:31:52;;;;;;;12.75;4.85;;;4.80;99.90;;;;;;5029338;28;20083;-65
2021/10/23 06:34:18;;;;;;;20.35;4.97;;;4.80;99.90;;;;;;5023387;28;20041;-64
2021/10/23 06:36:44;;;;;;;17.42;4.30;;;4.90;99.90;;;;;;5022708;28;20106;-65
2021/10/23 06:39:09;;;;;;;23.10;5.05;;;4.90;99.90;;;;;;5024731;28;20046;-65
2021/10/23 06:41:35;;;;;;;17.00;4.60;;;4.90;99.90;;;;;;5026988;28;20490;-65
2021/10/23 06:44:07;;;;;;;23.23;5.43;;;5.00;99.90;;;;;;5027618;28;20512;-65
2021/10/23 06:46:38;;;;;;;18.83;6.13;;;5.00;99.90;;;;;;5037611;28;20037;-65
2021/10/23 06:49:05;;;;;;;24.48;5.25;;;5.10;99.90;;;;;;5046606;28;20117;-63
2021/10/23 06:51:31;;;;;;;19.40;4.93;;;5.10;99.90;;;;;;5028183;28;20072;-64
2021/10/23 06:53:58;;;;;;;33.00;13.63;;;5.10;99.90;;;;;;5026662;28;20124;-64
2021/10/23 06:56:25;;;;;;;18.38;7.13;;;5.20;99.90;;;;;;5025654;28;20057;-64
2021/10/23 06:58:50;;;;;;;20.52;7.55;;;5.30;99.90;;;;;;5040437;28;20036;-64
2021/10/23 07:01:17;;;;;;;23.48;8.15;;;5.20;99.90;;;;;;5045703;28;20742;-64
2021/10/23 07:03:42;;;;;;;26.58;8.07;;;5.40;99.90;;;;;;5046450;28;20144;-64
2021/10/23 07:06:08;;;;;;;13.07;5.90;;;5.40;99.90;;;;;;5045464;28;20119;-65
2021/10/23 07:08:34;;;;;;;20.63;5.53;;;5.40;99.90;;;;;;5043127;28;20099;-64
2021/10/23 07:11:00;;;;;;;27.13;8.18;;;5.40;99.90;;;;;;5043000;28;20430;-65
2021/10/23 07:13:26;;;;;;;22.17;9.63;;;5.50;99.90;;;;;;5045093;28;20124;-64
2021/10/23 07:15:52;;;;;;;19.40;6.85;;;5.60;99.90;;;;;;5045351;28;20043;-64
2021/10/23 07:18:17;;;;;;;58.72;30.10;;;5.70;99.90;;;;;;5045700;28;20120;-64
2021/10/23 07:20:43;;;;;;;20.33;8.50;;;5.80;99.90;;;;;;5043194;28;20124;-65
2021/10/23 07:23:08;;;;;;;21.85;8.00;;;5.90;99.90;;;;;;5045646;28;20065;-64
2021/10/23 07:25:35;;;;;;;12.85;4.95;;;5.90;99.90;;;;;;5046721;28;20048;-64
2021/10/23 07:28:01;;;;;;;16.98;6.13;;;5.90;99.90;;;;;;5046050;28;20045;-65
2021/10/23 07:30:27;;;;;;;15.48;4.93;;;5.90;99.90;;;;;;5047019;28;20564;-64
2021/10/23 07:32:52;;;;;;;;;;;5.90;99.90;;;;;;5031269;28;20041;-65
2021/10/23 07:35:18;;;;;;;15.80;4.07;;;6.00;99.90;;;;;;5030701;28;19931;-64
2021/10/23 07:37:43;;;;;;;;;;;6.10;99.90;;;;;;5030743;28;20481;-64
2021/10/23 07:40:12;;;;;;;15.13;3.47;;;6.20;99.90;;;;;;5030170;28;19924;-64
2021/10/23 07:42:39;;;;;;;13.73;3.70;;;6.20;99.90;;;;;;5030600;28;20475;-65
2021/10/23 07:45:06;;;;;;;16.75;4.78;;;6.20;99.90;;;;;;5029350;28;20041;-65
2021/10/23 07:47:32;;;;;;;17.00;5.13;;;6.30;99.90;;;;;;5046963;28;20038;-64
2021/10/23 07:49:58;;;;;;;47.25;18.92;;;6.40;99.90;;;;;;5040069;28;20045;-65
2021/10/23 07:52:24;;;;;;;25.50;7.07;;;6.50;99.90;;;;;;5046573;28;21101;-64
2021/10/23 07:54:50;;;;;;;18.55;5.95;;;6.50;99.90;;;;;;5032809;28;20049;-64
2021/10/23 07:57:16;;;;;;;16.92;5.00;;;6.50;99.90;;;;;;5028021;28;20048;-64
2021/10/23 07:59:42;;;;;;;11.50;3.85;;;6.60;99.90;;;;;;5025867;28;20037;-64
2021/10/23 08:02:08;;;;;;;14.95;4.38;;;6.60;99.90;;;;;;5031202;28;20048;-64
2021/10/23 08:04:34;;;;;;;;;;;6.60;99.90;;;;;;5031638;28;20049;-65
2021/10/23 08:07:01;;;;;;;45.03;20.75;;;6.70;99.90;;;;;;5028278;28;19921;-64
2021/10/23 08:09:33;;;;;;;27.42;9.80;;;6.60;99.90;;;;;;5027518;28;20049;-64
2021/10/23 08:12:00;;;;;;;27.67;10.13;;;6.70;99.90;;;;;;5030453;28;20135;-64
2021/10/23 08:14:26;;;;;;;29.23;6.85;;;6.80;99.90;;;;;;5026999;28;20144;-64
2021/10/23 08:16:52;;;;;;;18.88;6.10;;;6.80;99.90;;;;;;5027814;28;20150;-64
2021/10/23 08:19:22;;;;;;;15.50;5.00;;;6.80;99.90;;;;;;5024445;28;20048;-64
2021/10/23 08:21:48;;;;;;;16.75;3.60;;;6.90;99.90;;;;;;5026603;28;20038;-63
2021/10/23 08:24:14;;;;;;;;;;;7.00;99.90;;;;;;5027865;28;20036;-64
2021/10/23 08:26:41;;;;;;;19.10;3.70;;;7.00;99.90;;;;;;5027723;28;19917;-64
2021/10/23 08:29:07;;;;;;;15.80;4.35;;;7.00;99.90;;;;;;5025186;28;20045;-63
2021/10/23 08:31:32;;;;;;;;;;;7.00;99.90;;;;;;5024199;28;20048;-64
2021/10/23 08:33:59;;;;;;;20.70;4.03;;;7.00;99.90;;;;;;5025812;28;19924;-64
2021/10/23 08:36:25;;;;;;;17.13;3.80;;;7.10;99.90;;;;;;5025868;28;20124;-64
2021/10/23 08:38:51;;;;;;;;;;;7.10;99.90;;;;;;5028208;28;20175;-64
2021/10/23 08:41:17;;;;;;;18.77;4.40;;;7.20;99.90;;;;;;5028895;28;20050;-64
2021/10/23 08:43:44;;;;;;;16.33;3.95;;;7.20;99.90;;;;;;5012191;28;20038;-64
2021/10/23 08:46:21;;;;;;;18.42;4.32;;;7.20;99.90;;;;;;5026262;28;20065;-63
2021/10/23 08:48:48;;;;;;;15.00;3.60;;;7.30;99.90;;;;;;5019144;28;20155;-64
2021/10/23 08:51:16;;;;;;;17.50;3.70;;;7.50;99.90;;;;;;5025554;28;20098;-64
2021/10/23 08:53:42;;;;;;;22.90;5.25;;;7.60;99.90;;;;;;5024964;28;20045;-64
2021/10/23 08:56:09;;;;;;;15.60;3.45;;;7.70;99.90;;;;;;5025982;28;20074;-63
2021/10/23 08:58:36;;;;;;;22.38;4.40;;;7.80;99.90;;;;;;5033651;28;20044;-64
2021/10/23 09:01:02;;;;;;;24.63;4.47;;;7.70;99.90;;;;;;5033796;28;20733;-64
2021/10/23 09:03:28;;;;;;;19.88;4.45;;;7.70;99.90;;;;;;5029604;28;20128;-64
2021/10/23 09:05:53;;;;;;;;;;;7.80;99.90;;;;;;5028469;28;20125;-63
2021/10/23 09:08:21;;;;;;;21.58;3.50;;;7.80;99.90;;;;;;5025614;28;20393;-64
2021/10/23 09:10:49;;;;;;;20.73;3.47;;;7.90;99.90;;;;;;5025743;28;20048;-64
2021/10/23 09:13:26;;;;;;;19.23;4.65;;;8.00;99.90;;;;;;5029095;28;20043;-64
2021/10/23 09:15:53;;;;;;;12.57;3.15;;;7.90;99.90;;;;;;5027133;28;20540;-64
2021/10/23 09:18:19;;;;;;;19.10;4.32;;;8.00;99.90;;;;;;5026387;28;20482;-63
2021/10/23 09:20:45;;;;;;;;;;;8.10;99.90;;;;;;5025012;28;20505;-64
2021/10/23 09:23:19;;;;;;;16.92;4.15;;;8.10;99.90;;;;;;5025618;28;19928;-63
2021/10/23 09:25:46;;;;;;;18.77;3.83;;;8.30;99.90;;;;;;5024643;28;20113;-64
2021/10/23 09:28:14;;;;;;;21.90;4.25;;;8.30;99.90;;;;;;5032151;28;20124;-64
2021/10/23 09:30:42;;;;;;;20.20;3.85;;;8.10;99.90;;;;;;5027853;28;20037;-64
2021/10/23 09:33:17;;;;;;;12.10;3.30;;;8.00;99.90;;;;;;5026412;28;20045;-64
2021/10/23 09:35:48;;;;;;;15.63;3.67;;;7.90;99.90;;;;;;5025253;28;20049;-64
2021/10/23 09:38:25;;;;;;;12.57;3.55;;;7.90;99.90;;;;;;5025499;28;20045;-64
2021/10/23 09:40:54;;;;;;;17.05;3.53;;;7.90;99.90;;;;;;5026565;28;20120;-64
2021/10/23 09:43:30;;;;;;;19.60;3.42;;;7.90;99.90;;;;;;5028017;28;20045;-64
2021/10/23 09:45:59;;;;;;;10.27;2.45;;;7.80;99.90;;;;;;5025977;28;20045;-63
2021/10/23 09:48:51;;;;;;;15.85;3.53;;;7.90;99.90;;;;;;5024540;28;20061;-64
2021/10/23 09:51:27;;;;;;;15.05;2.55;;;7.80;99.90;;;;;;5020155;28;20060;-63
2021/10/23 09:53:55;;;;;;;11.15;2.50;;;7.80;99.90;;;;;;5025649;28;20467;-64
2021/10/23 09:56:28;;;;;;;14.82;2.60;;;7.70;99.90;;;;;;5026606;28;20041;-63
2021/10/23 09:59:07;;;;;;;10.45;1.90;;;7.60;99.90;;;;;;5037141;28;20032;-64
2021/10/23 10:01:41;;;;;;;11.90;2.42;;;7.60;99.90;;;;;;5024255;28;20509;-64
2021/10/23 10:04:15;;;;;;;19.33;2.20;;;7.70;99.90;;;;;;5026162;28;20038;-65
2021/10/23 10:06:42;;;;;;;12.50;2.25;;;7.90;99.90;;;;;;5023540;28;20095;-64
2021/10/23 10:09:19;;;;;;;9.48;2.10;;;8.00;99.90;;;;;;5024652;28;20124;-64
2021/10/23 10:11:48;;;;;;;8.07;2.58;;;8.00;99.90;;;;;;5027350;28;20067;-64
2021/10/23 10:14:19;;;;;;;12.93;2.45;;;8.20;99.90;;;;;;5027320;28;20038;-63
2021/10/23 10:16:49;;;;;;;14.45;2.67;;;8.50;99.90;;;;;;5025442;28;20600;-64
2021/10/23 10:19:19;;;;;;;12.77;2.25;;;8.70;99.90;;;;;;5026165;28;20128;-64
2021/10/23 10:21:46;;;;;;;10.20;3.03;;;8.60;99.90;;;;;;5027276;28;20049;-65
2021/10/23 10:24:32;;;;;;;11.13;1.70;;;8.70;99.90;;;;;;5027495;28;20515;-64
2021/10/23 10:27:02;;;;;;;6.60;1.50;;;8.90;99.90;;;;;;5027598;28;20505;-65
2021/10/23 10:29:41;;;;;;;10.70;2.55;;;9.20;99.90;;;;;;5034497;28;20152;-64
2021/10/23 10:32:27;;;;;;;10.18;2.00;;;9.40;99.90;;;;;;5037255;28;20111;-65
2021/10/23 10:43:10;;;;;;;9.55;1.73;;;9.70;99.90;;;;;;5045377;28;20102;-65
2021/10/23 10:45:43;;;;;;;9.52;3.78;;;9.90;99.90;;;;;;5046930;28;20044;-65
2021/10/23 10:48:27;;;;;;;15.82;2.05;;;9.90;99.90;;;;;;5047878;28;20048;-65
2021/10/23 10:50:55;;;;;;;7.93;1.83;;;9.60;98.10;;;;;;5047007;28;20045;-64
2021/10/23 10:53:27;;;;;;;9.80;1.58;;;9.40;99.00;;;;;;5047752;28;20041;-64
2021/10/23 10:55:59;;;;;;;9.18;2.05;;;9.20;98.10;;;;;;5046393;28;20045;-64
2021/10/23 10:58:53;;;;;;;21.58;8.18;;;9.30;99.90;;;;;;5045653;28;20055;-65
2021/10/23 11:01:24;;;;;;;5.72;2.15;;;9.20;98.80;;;;;;5043239;28;20037;-65
2021/10/23 11:03:52;;;;;;;10.98;1.98;;;9.00;99.90;;;;;;5046604;28;20118;-65
2021/10/23 11:06:34;;;;;;;9.52;2.15;;;8.90;99.90;;;;;;5044840;28;20041;-65
2021/10/23 11:09:19;;;;;;;9.43;1.60;;;8.90;99.90;;;;;;5043586;28;20040;-65
2021/10/23 11:11:45;;;;;;;10.13;1.90;;;8.90;99.90;;;;;;5044389;28;20144;-64
2021/10/23 11:14:20;;;;;;;;;;;8.90;99.90;;;;;;5044656;28;20623;-65
2021/10/23 11:16:55;;;;;;;5.97;1.95;;;8.80;99.90;;;;;;5044679;28;19940;-65
2021/10/23 11:19:26;;;;;;;6.95;1.27;;;8.70;99.90;;;;;;5040948;28;20033;-65
2021/10/23 11:21:57;;;;;;;7.13;1.35;;;8.60;99.90;;;;;;5045275;28;20041;-65
2021/10/23 11:24:23;;;;;;;4.38;1.25;;;8.60;99.90;;;;;;5041848;28;20049;-64
2021/10/23 11:26:52;;;;;;;;;;;8.60;99.90;;;;;;5044550;28;20140;-65
2021/10/23 11:29:27;;;;;;;12.00;2.33;;;8.60;99.90;;;;;;5041588;28;19921;-65
2021/10/23 11:31:59;;;;;;;12.45;1.23;;;8.60;99.90;;;;;;5023025;28;20037;-64
2021/10/23 11:34:30;;;;;;;7.88;1.52;;;8.60;99.90;;;;;;5021968;28;20045;-65
2021/10/23 11:37:02;;;;;;;8.52;1.60;;;8.60;99.90;;;;;;5023573;28;20048;-64
2021/10/23 11:39:31;;;;;;;9.88;1.35;;;8.70;99.90;;;;;;5025640;28;20064;-65
2021/10/23 11:42:15;;;;;;;10.77;1.80;;;8.60;99.90;;;;;;5045740;28;20041;-66
2021/10/23 11:44:42;;;;;;;9.77;1.60;;;8.60;99.90;;;;;;5042527;28;20125;-66
2021/10/23 11:47:08;;;;;;;14.13;1.85;;;8.80;99.90;;;;;;5039542;28;20519;-65
2021/10/23 11:49:34;;;;;;;;;;;8.80;99.90;;;;;;5026259;28;20409;-65
2021/10/23 11:52:00;;;;;;;20.70;2.67;;;8.70;99.90;;;;;;5025908;28;19924;-65
2021/10/23 11:54:26;;;;;;;13.05;2.47;;;8.70;99.90;;;;;;5008138;28;20042;-66
2021/10/23 11:56:52;;;;;;;11.45;1.60;;;8.60;99.90;;;;;;5036213;28;20045;-65
2021/10/23 11:59:23;;;;;;;;;;;8.80;99.90;;;;;;5036725;28;20037;-65
2021/10/23 12:01:50;;;;;;;10.05;2.20;;;8.80;99.90;;;;;;5044819;28;19924;-65
2021/10/23 12:04:16;;;;;;;14.43;2.55;;;9.10;99.90;;;;;;5044815;28;20037;-65
2021/10/23 12:06:43;;;;;;;;;;;9.10;99.90;;;;;;5044427;28;20044;-65
2021/10/23 12:09:23;;;;;;;7.68;1.70;;;9.10;99.90;;;;;;5039794;28;19932;-66
2021/10/23 12:12:09;;;;;;;6.22;1.40;;;9.30;99.90;;;;;;5024697;28;20453;-64
2021/10/23 12:14:36;;;;;;;7.38;1.92;;;9.30;99.90;;;;;;5028856;28;20045;-65
2021/10/23 12:17:02;;;;;;;8.45;2.05;;;9.60;99.90;;;;;;5047295;28;20037;-64
2021/10/23 12:19:38;;;;;;;10.63;1.65;;;9.60;99.90;;;;;;5030034;28;20038;-66
2021/10/23 12:22:04;;;;;;;8.95;1.83;;;9.70;99.90;;;;;;5027089;28;20087;-65
2021/10/23 12:24:31;;;;;;;;;;;9.60;99.80;;;;;;5028947;28;20041;-64
2021/10/23 12:27:09;;;;;;;8.20;2.00;;;9.50;99.90;;;;;;5039221;28;20422;-65
2021/10/23 12:29:40;;;;;;;11.43;2.88;;;9.60;99.90;;;;;;5046095;28;20136;-71
2021/10/23 12:32:08;;;;;;;9.63;2.35;;;9.60;99.90;;;;;;5046942;28;20531;-66
2021/10/23 12:34:49;;;;;;;6.45;2.45;;;9.70;99.90;;;;;;5049222;28;20099;-63
2021/10/23 12:37:25;;;;;;;7.95;2.60;;;9.80;99.40;;;;;;5046961;28;20134;-67
2021/10/23 12:40:24;;;;;;;13.13;2.95;;;9.80;98.60;;;;;;5045574;28;20357;-64
2021/10/23 12:43:03;;;;;;;8.60;2.78;;;9.50;98.50;;;;;;5025719;28;20052;-61
2021/10/23 12:45:35;;;;;;;9.95;3.10;;;9.40;99.80;;;;;;5046400;28;20032;-64
2021/10/23 12:48:04;;;;;;;5.38;2.60;;;9.40;98.70;;;;;;5053764;28;20061;-64
2021/10/23 12:50:31;;;;;;;10.27;3.65;;;9.50;99.20;;;;;;5070181;28;20512;-64
2021/10/23 12:52:56;;;;;;;13.23;4.30;;;9.40;99.20;;;;;;5066509;28;20043;-64
2021/10/23 12:55:23;;;;;;;;;;;9.40;98.30;;;;;;5068216;28;20032;-66
2021/10/23 12:57:48;;;;;;;6.82;2.92;;;9.40;99.30;;;;;;5061348;28;19923;-64
2021/10/23 13:00:14;;;;;;;;;;;9.40;99.00;;;;;;5038946;28;20029;-64
2021/10/23 13:02:41;;;;;;;13.88;2.67;;;9.50;99.50;;;;;;5049277;28;20419;-64
2021/10/23 13:05:08;;;;;;;8.25;2.63;;;9.50;99.90;;;;;;5049577;28;20068;-64
2021/10/23 13:07:33;;;;;;;7.40;2.83;;;9.50;99.20;;;;;;5046344;28;20037;-64
2021/10/23 13:10:00;;;;;;;;;;;9.50;99.40;;;;;;5045874;28;20041;-64